Derby Field Lovelock US
ICAO: KLOL
IATA: LOL
Category: Medium
Scheduled Services: No

Elevation: 3904 ft
TransAlt. 18000 ft.

Airport Communications:
ASOS:120.675
OAKLAND CNTR:128.8
RENO RDO:122.4
CTAF/UNICOM:122.8

KLOL Zoom In..

Runways:

(A) RW 02 length 5529 ft width 75 ft
---- / hdg 16

(B) RW 08 length 4931 ft width 75 ft
---- / hdg 76

(C) RW 20 length 5529 ft width 75 ft
---- / hdg 196

(D) RW 26 length 4931 ft width 75 ft
---- / hdg 256

Location; KLOL
Day. 19 / Time. 20.53 Zulu
* Altimeter: 30.03
* Temperature: 37° c. 98.6°f.
* Wind from: 190° Speed 08 kn with Gusts up to 16 kn.
Dewpoint: -01° c.
Visibility: 10 Statute Miles.
Clouds: Clear (automated report).

KLOL 192053Z AUTO 19008G16KT 10SM CLR 37/M01 A3003 RMK AO2 SLP119 T03721011 58020


Wind From 190°
Speed 08 kn.

 
 
jpsmedia.com for Web Design worldairports.se 2018   terms of use